createdAt,value
2022-10-06T00:00:32.920Z,100254.56
2022-10-06T00:02:59.686Z,100254.83
2022-10-06T00:05:26.527Z,100254.90
2022-10-06T00:07:53.218Z,100256.99
2022-10-06T00:10:19.800Z,100261.83
2022-10-06T00:12:47.596Z,100263.53
2022-10-06T00:15:18.085Z,100259.06
2022-10-06T00:17:44.792Z,100257.62
2022-10-06T00:20:11.438Z,100257.85
2022-10-06T00:22:42.775Z,100259.14
2022-10-06T00:25:10.339Z,100258.84
2022-10-06T00:27:41.172Z,100259.00
2022-10-06T00:30:13.153Z,100254.27
2022-10-06T00:32:39.963Z,100252.02
2022-10-06T00:35:07.088Z,100253.45
2022-10-06T00:37:35.315Z,100252.20
2022-10-06T00:40:06.733Z,100255.09
2022-10-06T00:42:33.421Z,100256.17
2022-10-06T00:45:00.417Z,100254.87
2022-10-06T00:47:27.524Z,100252.05
2022-10-06T00:49:54.823Z,100248.55
2022-10-06T00:52:23.056Z,100238.90
2022-10-06T00:54:49.820Z,100238.53
2022-10-06T00:57:16.443Z,100231.79
2022-10-06T00:59:43.142Z,100228.95
2022-10-06T01:02:20.793Z,100230.98
2022-10-06T01:04:50.922Z,100231.41
2022-10-06T01:07:18.561Z,100233.98
2022-10-06T01:09:45.264Z,100232.80
2022-10-06T01:12:12.885Z,100234.48
2022-10-06T01:14:39.523Z,100236.02
2022-10-06T01:17:19.646Z,100234.76
2022-10-06T01:19:51.965Z,100232.43
2022-10-06T01:22:26.155Z,100235.92
2022-10-06T01:24:52.850Z,100230.87
2022-10-06T01:27:20.304Z,100225.70
2022-10-06T01:29:47.046Z,100231.20
2022-10-06T01:32:13.727Z,100227.74
2022-10-06T01:34:40.320Z,100228.83
2022-10-06T01:37:07.067Z,100226.98
2022-10-06T01:39:34.045Z,100230.13
2022-10-06T01:42:00.648Z,100230.02
2022-10-06T01:44:27.391Z,100227.67
2022-10-06T01:46:54.118Z,100228.53
2022-10-06T01:49:20.928Z,100225.27
2022-10-06T01:51:48.308Z,100227.57
2022-10-06T01:54:14.979Z,100228.84
2022-10-06T01:56:42.071Z,100233.22
2022-10-06T01:59:08.751Z,100230.36
2022-10-06T02:01:35.926Z,100229.21
2022-10-06T02:04:02.794Z,100234.48
2022-10-06T02:06:30.421Z,100240.21
2022-10-06T02:08:58.244Z,100245.67
2022-10-06T02:11:24.846Z,100243.09
2022-10-06T02:13:51.586Z,100235.04
2022-10-06T02:16:18.291Z,100230.92
2022-10-06T02:18:45.168Z,100231.95
2022-10-06T02:21:15.775Z,100229.09
2022-10-06T02:23:42.571Z,100229.63
2022-10-06T02:26:09.229Z,100229.54
2022-10-06T02:28:36.164Z,100233.16
2022-10-06T02:31:05.102Z,100230.56
2022-10-06T02:33:32.238Z,100235.75
2022-10-06T02:35:59.150Z,100236.52
2022-10-06T02:38:27.138Z,100242.26
2022-10-06T02:40:54.678Z,100244.52
2022-10-06T02:43:21.733Z,100244.16
2022-10-06T02:46:01.452Z,100245.84
2022-10-06T02:48:29.324Z,100245.05
2022-10-06T02:50:57.138Z,100244.13
2022-10-06T02:53:25.737Z,100245.29
2022-10-06T02:56:06.349Z,100244.31
2022-10-06T02:58:33.145Z,100247.46
2022-10-06T03:01:08.058Z,100248.43
2022-10-06T03:03:35.339Z,100246.58
2022-10-06T03:06:06.522Z,100247.95
2022-10-06T03:08:33.660Z,100249.23
2022-10-06T03:11:02.219Z,100249.33
2022-10-06T03:13:29.768Z,100248.66
2022-10-06T03:15:57.148Z,100249.39
2022-10-06T03:18:24.072Z,100246.04
2022-10-06T03:20:51.025Z,100242.93
2022-10-06T03:23:18.137Z,100240.94
2022-10-06T03:25:55.256Z,100245.23
2022-10-06T03:28:22.105Z,100241.96
2022-10-06T03:30:49.062Z,100238.20
2022-10-06T03:33:16.383Z,100240.30
2022-10-06T03:35:43.115Z,100239.41
2022-10-06T03:38:09.792Z,100243.91
2022-10-06T03:40:36.465Z,100242.98
2022-10-06T03:43:03.160Z,100247.40
2022-10-06T03:45:29.789Z,100243.94
2022-10-06T03:47:56.484Z,100246.92
2022-10-06T03:50:23.440Z,100251.34
2022-10-06T03:52:51.419Z,100251.11
2022-10-06T03:55:19.002Z,100256.03
2022-10-06T03:57:45.713Z,100253.52
2022-10-06T04:00:12.862Z,100256.02
2022-10-06T04:02:39.568Z,100251.44
2022-10-06T04:05:06.963Z,100248.54
2022-10-06T04:07:33.799Z,100246.21
2022-10-06T04:10:00.538Z,100252.70
2022-10-06T04:12:27.211Z,100255.56
2022-10-06T04:14:59.224Z,100257.59
2022-10-06T04:17:27.069Z,100260.39
2022-10-06T04:19:53.783Z,100257.83
2022-10-06T04:22:20.417Z,100264.40
2022-10-06T04:24:47.336Z,100260.91
2022-10-06T04:27:29.655Z,100261.85
2022-10-06T04:30:15.908Z,100260.02
2022-10-06T04:32:43.401Z,100264.98
2022-10-06T04:35:10.562Z,100270.11
2022-10-06T04:37:37.858Z,100271.01
2022-10-06T04:40:04.675Z,100273.39
2022-10-06T04:42:35.119Z,100273.45
2022-10-06T04:45:04.969Z,100276.84
2022-10-06T04:47:32.092Z,100276.20
2022-10-06T04:49:58.756Z,100276.09
2022-10-06T04:52:25.562Z,100278.33
2022-10-06T04:54:52.581Z,100284.20
2022-10-06T04:57:19.651Z,100284.43
2022-10-06T05:00:07.988Z,100280.41
2022-10-06T05:02:38.002Z,100279.39
2022-10-06T05:05:05.884Z,100275.65
2022-10-06T05:07:32.791Z,100277.70
2022-10-06T05:09:59.801Z,100279.05
2022-10-06T05:12:28.367Z,100280.55
2022-10-06T05:14:55.092Z,100281.39
2022-10-06T05:17:21.800Z,100284.28
2022-10-06T05:19:48.641Z,100280.04
2022-10-06T05:22:15.269Z,100284.44
2022-10-06T05:24:41.998Z,100283.39
2022-10-06T05:27:08.732Z,100283.06
2022-10-06T05:29:35.362Z,100284.58
2022-10-06T05:32:05.053Z,100284.80
2022-10-06T05:34:32.619Z,100285.98
2022-10-06T05:36:59.294Z,100288.29
2022-10-06T05:39:25.995Z,100288.91
2022-10-06T05:41:56.007Z,100288.00
2022-10-06T05:44:23.717Z,100289.32
2022-10-06T05:46:50.669Z,100288.73
2022-10-06T05:49:18.203Z,100290.44
2022-10-06T05:51:53.200Z,100286.77
2022-10-06T05:54:26.107Z,100288.92
2022-10-06T05:56:53.069Z,100285.81
2022-10-06T05:59:19.815Z,100287.15
2022-10-06T06:01:47.187Z,100290.21
2022-10-06T06:04:21.071Z,100288.95
2022-10-06T06:06:51.307Z,100292.98
2022-10-06T06:09:21.395Z,100292.56
2022-10-06T06:11:50.834Z,100293.47
2022-10-06T06:14:44.087Z,100294.66
2022-10-06T06:17:14.886Z,100298.27
2022-10-06T06:19:41.510Z,100299.63
2022-10-06T06:22:08.529Z,100301.56
2022-10-06T06:24:38.424Z,100299.95
2022-10-06T06:27:05.095Z,100299.42
2022-10-06T06:29:31.846Z,100305.10
2022-10-06T06:31:58.530Z,100302.26
2022-10-06T06:34:27.022Z,100301.02
2022-10-06T06:36:55.910Z,100301.39
2022-10-06T06:39:22.812Z,100299.52
2022-10-06T06:41:50.752Z,100297.96
2022-10-06T06:44:35.997Z,100298.27
2022-10-06T06:47:06.726Z,100300.31
2022-10-06T06:49:33.672Z,100299.51
2022-10-06T06:52:05.207Z,100299.49
2022-10-06T06:54:33.886Z,100301.04
2022-10-06T06:57:05.302Z,100297.73
2022-10-06T06:59:34.099Z,100299.19
2022-10-06T07:02:01.224Z,100299.16
2022-10-06T07:04:30.567Z,100297.46
2022-10-06T07:06:57.985Z,100291.95
2022-10-06T07:09:30.294Z,100289.65
2022-10-06T07:12:11.645Z,100286.70
2022-10-06T07:15:02.452Z,100286.64
2022-10-06T07:17:49.212Z,100290.21
2022-10-06T07:20:34.922Z,100290.93
2022-10-06T07:23:20.289Z,100292.80
2022-10-06T07:25:47.004Z,100295.40
2022-10-06T07:28:17.149Z,100294.98
2022-10-06T07:30:44.894Z,100294.67
2022-10-06T07:33:15.474Z,100296.82
2022-10-06T07:35:43.681Z,100290.52
2022-10-06T07:38:11.015Z,100287.68
2022-10-06T07:40:50.685Z,100284.01
2022-10-06T07:43:29.988Z,100284.48
2022-10-06T07:45:57.410Z,100282.08
2022-10-06T07:48:31.722Z,100284.90
2022-10-06T07:51:02.874Z,100283.30
2022-10-06T07:53:36.158Z,100279.56
2022-10-06T07:56:08.738Z,100282.70
2022-10-06T07:58:40.076Z,100276.23
2022-10-06T08:01:08.389Z,100275.90
2022-10-06T08:03:36.838Z,100271.77
2022-10-06T08:06:03.741Z,100271.63
2022-10-06T08:08:31.391Z,100268.55
2022-10-06T08:11:01.521Z,100265.86
2022-10-06T08:13:28.635Z,100264.65
2022-10-06T08:15:56.483Z,100266.11
2022-10-06T08:18:45.344Z,100268.69
2022-10-06T08:21:19.375Z,100266.01
2022-10-06T08:23:46.945Z,100265.90
2022-10-06T08:26:14.287Z,100260.10
2022-10-06T08:28:43.924Z,100262.69
2022-10-06T08:31:15.572Z,100260.04
2022-10-06T08:33:43.031Z,100257.11
2022-10-06T08:37:32.759Z,100250.56
2022-10-06T08:39:59.476Z,100248.62
2022-10-06T08:42:35.098Z,100243.91
2022-10-06T08:45:10.541Z,100247.05
2022-10-06T08:47:37.274Z,100249.23
2022-10-06T08:50:06.219Z,100246.56
2022-10-06T08:52:48.074Z,100246.42
2022-10-06T08:55:32.540Z,100247.03
2022-10-06T08:58:31.754Z,100246.33
2022-10-06T09:01:13.922Z,100242.79
2022-10-06T09:03:40.799Z,100241.91
2022-10-06T09:06:18.748Z,100241.11
2022-10-06T09:08:54.311Z,100241.79
2022-10-06T09:11:59.384Z,100243.61
2022-10-06T09:14:50.298Z,100245.45
2022-10-06T09:17:22.990Z,100241.66
2022-10-06T09:20:24.156Z,100242.63
2022-10-06T09:22:50.860Z,100243.61
2022-10-06T09:25:20.375Z,100245.45
2022-10-06T09:27:50.633Z,100246.21
2022-10-06T09:30:17.703Z,100249.79
2022-10-06T09:32:47.308Z,100247.48
2022-10-06T09:35:21.807Z,100245.93
2022-10-06T09:37:54.201Z,100243.26
2022-10-06T09:40:33.517Z,100244.10
2022-10-06T09:43:00.327Z,100238.89
2022-10-06T09:45:28.989Z,100239.10
2022-10-06T09:47:55.766Z,100241.34
2022-10-06T09:50:22.402Z,100242.92
2022-10-06T09:52:59.243Z,100245.83
2022-10-06T09:55:29.808Z,100241.48
2022-10-06T09:57:57.313Z,100242.21
2022-10-06T10:00:38.531Z,100241.77
2022-10-06T10:03:09.657Z,100243.14
2022-10-06T10:05:37.685Z,100243.55
2022-10-06T10:08:27.571Z,100241.37
2022-10-06T10:11:32.404Z,100234.60
2022-10-06T10:13:59.286Z,100232.74
2022-10-06T10:16:34.525Z,100229.37
2022-10-06T10:19:05.738Z,100230.02
2022-10-06T10:21:37.104Z,100227.34
2022-10-06T10:24:07.368Z,100230.08
2022-10-06T10:26:57.874Z,100226.77
2022-10-06T10:29:33.517Z,100226.04
2022-10-06T10:32:38.523Z,100225.02
2022-10-06T10:35:22.354Z,100226.38
2022-10-06T10:38:18.176Z,100219.48
2022-10-06T10:40:50.639Z,100219.33
2022-10-06T10:43:26.042Z,100218.09
2022-10-06T10:45:59.751Z,100218.23
2022-10-06T10:48:35.610Z,100218.33
2022-10-06T10:51:07.836Z,100214.65
2022-10-06T10:54:00.507Z,100212.49
2022-10-06T10:56:27.463Z,100210.55
2022-10-06T10:58:56.451Z,100213.40
2022-10-06T11:01:32.378Z,100208.66
2022-10-06T11:03:59.162Z,100209.46
2022-10-06T11:07:08.527Z,100208.49
2022-10-06T11:09:51.148Z,100209.27
2022-10-06T11:12:23.947Z,100209.26
2022-10-06T11:15:05.630Z,100200.08
2022-10-06T11:17:44.742Z,100195.65
2022-10-06T11:20:29.877Z,100194.72
2022-10-06T11:23:21.493Z,100192.44
2022-10-06T11:26:09.851Z,100190.98
2022-10-06T11:29:19.082Z,100189.42
2022-10-06T11:31:54.720Z,100185.69
2022-10-06T11:34:21.544Z,100186.45
2022-10-06T11:37:12.827Z,100185.61
2022-10-06T11:39:58.265Z,100189.35
2022-10-06T11:42:51.073Z,100187.41
2022-10-06T11:45:20.912Z,100184.69
2022-10-06T11:47:56.243Z,100185.73
2022-10-06T11:50:36.692Z,100181.39
2022-10-06T11:53:06.604Z,100182.70
2022-10-06T11:55:33.334Z,100183.67
2022-10-06T11:58:29.779Z,100183.98
2022-10-06T12:00:54.743Z,100180.05
2022-10-06T12:03:33.444Z,100179.83
2022-10-06T12:06:00.198Z,100180.62
2022-10-06T12:08:37.653Z,100178.39
2022-10-06T12:11:39.900Z,100179.38
2022-10-06T12:15:31.927Z,100180.73
2022-10-06T12:17:32.132Z,100175.95
2022-10-06T12:20:01.997Z,100175.39
2022-10-06T12:22:34.646Z,100172.02
2022-10-06T12:25:18.117Z,100176.48
2022-10-06T12:28:03.583Z,100173.45
2022-10-06T12:30:43.951Z,100173.83
2022-10-06T12:33:17.907Z,100170.45
2022-10-06T12:35:44.958Z,100171.84
2022-10-06T12:38:33.935Z,100174.62
2022-10-06T12:41:01.771Z,100172.51
2022-10-06T12:43:33.212Z,100175.16
2022-10-06T12:46:18.336Z,100174.59
2022-10-06T12:49:12.198Z,100172.54
2022-10-06T12:51:40.050Z,100168.58
2022-10-06T12:54:20.344Z,100170.80
2022-10-06T12:56:58.959Z,100164.73
2022-10-06T12:59:33.728Z,100166.55
2022-10-06T13:02:13.405Z,100165.66
2022-10-06T13:04:41.373Z,100159.60
2022-10-06T13:07:13.807Z,100157.48
2022-10-06T13:09:40.882Z,100159.63
2022-10-06T13:12:32.337Z,100156.20
2022-10-06T13:15:13.472Z,100154.71
2022-10-06T13:17:49.037Z,100153.33
2022-10-06T13:20:23.103Z,100154.92
2022-10-06T13:23:00.903Z,100155.36
2022-10-06T13:25:33.346Z,100153.20
2022-10-06T13:28:02.334Z,100153.86
2022-10-06T13:30:29.273Z,100153.20
2022-10-06T13:32:56.003Z,100153.20
2022-10-06T13:35:24.702Z,100154.52
2022-10-06T13:37:52.664Z,100152.98
2022-10-06T13:40:47.047Z,100149.29
2022-10-06T13:43:16.210Z,100152.67
2022-10-06T13:45:43.022Z,100150.97
2022-10-06T13:48:18.639Z,100150.20
2022-10-06T13:50:46.630Z,100151.34
2022-10-06T13:53:25.661Z,100150.27
2022-10-06T13:55:52.579Z,100146.66
2022-10-06T13:58:19.596Z,100149.43
2022-10-06T14:01:01.009Z,100153.07
2022-10-06T14:06:08.244Z,100155.70
2022-10-06T14:08:34.989Z,100158.25
2022-10-06T14:11:04.160Z,100159.11
2022-10-06T14:13:46.143Z,100161.04
2022-10-06T14:16:21.158Z,100162.55
2022-10-06T14:18:58.984Z,100159.11
2022-10-06T14:21:38.252Z,100160.73
2022-10-06T14:24:17.172Z,100159.40
2022-10-06T14:26:44.450Z,100156.41
2022-10-06T14:29:13.529Z,100155.17
2022-10-06T14:31:40.284Z,100155.21
2022-10-06T14:34:14.330Z,100160.12
2022-10-06T14:36:42.171Z,100161.98
2022-10-06T14:39:09.250Z,100166.79
2022-10-06T14:41:36.015Z,100170.34
2022-10-06T14:44:08.999Z,100173.48
2022-10-06T14:46:36.220Z,100180.23
2022-10-06T14:49:09.809Z,100182.36
2022-10-06T14:51:37.410Z,100181.65
2022-10-06T14:54:04.739Z,100184.45
2022-10-06T14:56:32.675Z,100185.16
2022-10-06T14:59:04.943Z,100186.10
2022-10-06T15:01:33.304Z,100191.05
2022-10-06T15:04:02.113Z,100190.70
2022-10-06T15:06:47.404Z,100196.64
2022-10-06T15:09:14.229Z,100194.90
2022-10-06T15:11:41.050Z,100195.45
2022-10-06T15:14:10.655Z,100202.09
2022-10-06T15:16:40.544Z,100204.83
2022-10-06T15:19:07.231Z,100206.67
2022-10-06T15:21:34.235Z,100213.94
2022-10-06T15:24:02.829Z,100214.68
2022-10-06T15:26:48.108Z,100223.98
2022-10-06T15:29:15.040Z,100232.84
2022-10-06T15:31:46.562Z,100241.77
2022-10-06T15:34:13.952Z,100247.15
2022-10-06T15:36:41.780Z,100248.42
2022-10-06T15:39:10.405Z,100252.78
2022-10-06T15:41:38.352Z,100260.17
2022-10-06T15:44:05.593Z,100260.28
2022-10-06T15:46:40.039Z,100261.60
2022-10-06T15:49:10.933Z,100261.82
2022-10-06T15:51:42.988Z,100263.14
2022-10-06T15:54:10.886Z,100263.93
2022-10-06T15:56:38.202Z,100267.67
2022-10-06T15:59:05.850Z,100273.55
2022-10-06T16:01:47.116Z,100272.53
2022-10-06T16:04:40.239Z,100274.45
2022-10-06T16:07:07.439Z,100278.73
2022-10-06T16:09:45.501Z,100285.20
2022-10-06T16:12:13.789Z,100291.00
2022-10-06T16:14:40.513Z,100290.80
2022-10-06T16:17:07.897Z,100294.51
2022-10-06T16:19:36.934Z,100299.16
2022-10-06T16:22:04.350Z,100300.61
2022-10-06T16:24:31.328Z,100305.03
2022-10-06T16:26:59.879Z,100307.27
2022-10-06T16:29:26.910Z,100310.80
2022-10-06T16:31:53.691Z,100313.75
2022-10-06T16:34:20.493Z,100314.63
2022-10-06T16:40:36.306Z,100321.29
2022-10-06T16:43:02.985Z,100324.20
2022-10-06T16:45:29.751Z,100327.91
2022-10-06T16:47:56.591Z,100324.69
2022-10-06T16:50:23.296Z,100327.68
2022-10-06T16:52:49.986Z,100325.66
2022-10-06T16:55:16.707Z,100329.45
2022-10-06T16:57:43.393Z,100332.73
2022-10-06T17:00:11.182Z,100330.31
2022-10-06T17:02:38.875Z,100333.20
2022-10-06T17:05:05.876Z,100338.25
2022-10-06T17:07:32.960Z,100337.79
2022-10-06T17:10:19.002Z,100340.88
2022-10-06T17:12:46.793Z,100341.33
2022-10-06T17:15:13.456Z,100341.26
2022-10-06T17:17:40.602Z,100346.34
2022-10-06T17:20:08.208Z,100352.42
2022-10-06T17:22:34.990Z,100354.54
2022-10-06T17:25:01.625Z,100354.16
2022-10-06T17:27:37.163Z,100354.18
2022-10-06T17:30:08.655Z,100356.10
2022-10-06T17:32:35.438Z,100355.31
2022-10-06T17:35:02.155Z,100357.95
2022-10-06T17:37:29.713Z,100363.73
2022-10-06T17:39:56.391Z,100365.23
2022-10-06T17:42:28.108Z,100367.27
2022-10-06T17:44:54.821Z,100369.70
2022-10-06T17:47:21.418Z,100368.34
2022-10-06T17:49:48.225Z,100376.17
2022-10-06T17:52:14.823Z,100377.52
2022-10-06T17:54:43.196Z,100376.83
2022-10-06T17:57:10.138Z,100378.91
2022-10-06T17:59:36.879Z,100378.63
2022-10-06T18:02:03.803Z,100381.42
2022-10-06T18:04:30.651Z,100384.85
2022-10-06T18:06:57.557Z,100383.51
2022-10-06T18:09:24.458Z,100388.02
2022-10-06T18:11:56.612Z,100390.73
2022-10-06T18:14:28.227Z,100388.22
2022-10-06T18:16:57.781Z,100394.27
2022-10-06T18:19:31.597Z,100398.49
2022-10-06T18:22:13.984Z,100396.10
2022-10-06T18:24:40.736Z,100392.72
2022-10-06T18:27:08.084Z,100392.52
2022-10-06T18:29:36.346Z,100393.11
2022-10-06T18:37:37.313Z,100404.77
2022-10-06T18:40:06.819Z,100405.27
2022-10-06T18:42:33.560Z,100410.57
2022-10-06T18:45:18.889Z,100408.41
2022-10-06T18:48:04.185Z,100413.23
2022-10-06T18:50:32.177Z,100416.77
2022-10-06T18:52:58.933Z,100416.87
2022-10-06T18:55:26.457Z,100419.17
2022-10-06T18:57:53.436Z,100422.14
2022-10-06T19:00:20.221Z,100424.85
2022-10-06T19:02:49.036Z,100431.42
2022-10-06T19:05:17.448Z,100434.30
2022-10-06T19:07:45.007Z,100439.84
2022-10-06T19:10:12.188Z,100435.86
2022-10-06T19:12:39.070Z,100443.00
2022-10-06T19:15:06.264Z,100444.81
2022-10-06T19:17:33.104Z,100445.50
2022-10-06T19:19:59.920Z,100447.45
2022-10-06T19:22:26.694Z,100443.44
2022-10-06T19:24:53.523Z,100446.77
2022-10-06T19:27:24.215Z,100446.70
2022-10-06T19:29:53.094Z,100447.84
2022-10-06T19:32:21.970Z,100447.92
2022-10-06T19:34:48.820Z,100454.46
2022-10-06T19:37:15.688Z,100458.42
2022-10-06T19:39:43.876Z,100462.11
2022-10-06T19:42:33.222Z,100458.84
2022-10-06T19:45:00.054Z,100460.17
2022-10-06T19:47:27.297Z,100463.20
2022-10-06T19:49:58.309Z,100466.55
2022-10-06T19:52:26.637Z,100464.77
2022-10-06T19:54:53.344Z,100468.33
2022-10-06T19:57:19.928Z,100467.35
2022-10-06T19:59:46.643Z,100467.91
2022-10-06T20:02:13.376Z,100470.69
2022-10-06T20:04:40.509Z,100469.76
2022-10-06T20:07:08.761Z,100472.42
2022-10-06T20:09:35.721Z,100476.97
2022-10-06T20:12:02.616Z,100478.00
2022-10-06T20:14:29.504Z,100483.58
2022-10-06T20:16:57.467Z,100486.55
2022-10-06T20:19:25.511Z,100485.21
2022-10-06T20:21:52.548Z,100488.65
2022-10-06T20:24:22.636Z,100490.64
2022-10-06T20:26:50.478Z,100493.48
2022-10-06T20:29:19.097Z,100498.31
2022-10-06T20:31:47.626Z,100498.91
2022-10-06T20:34:19.104Z,100505.10
2022-10-06T20:36:46.314Z,100503.63
2022-10-06T20:39:34.074Z,100504.83
2022-10-06T20:42:00.771Z,100503.59
2022-10-06T20:44:27.437Z,100508.44
2022-10-06T20:46:54.561Z,100510.65
2022-10-06T20:49:21.358Z,100510.58
2022-10-06T20:55:17.741Z,100511.85
2022-10-06T20:57:44.649Z,100512.96
2022-10-06T21:00:11.974Z,100516.48
2022-10-06T21:02:39.128Z,100520.45
2022-10-06T21:05:06.958Z,100523.17
2022-10-06T21:07:34.375Z,100522.25
2022-10-06T21:10:01.052Z,100527.55
2022-10-06T21:12:28.476Z,100527.46
2022-10-06T21:14:57.009Z,100532.65
2022-10-06T21:17:23.812Z,100531.66
2022-10-06T21:19:50.533Z,100535.27
2022-10-06T21:22:17.376Z,100540.08
2022-10-06T21:24:44.083Z,100541.73
2022-10-06T21:27:10.748Z,100541.98
2022-10-06T21:29:37.527Z,100541.41
2022-10-06T21:32:04.135Z,100544.44
2022-10-06T21:34:31.666Z,100546.63
2022-10-06T21:36:58.403Z,100551.58
2022-10-06T21:39:25.024Z,100549.08
2022-10-06T21:41:51.735Z,100552.36
2022-10-06T21:44:18.423Z,100556.21
2022-10-06T21:46:55.242Z,100553.05
2022-10-06T21:49:23.552Z,100555.42
2022-10-06T21:51:51.733Z,100557.69
2022-10-06T21:54:18.864Z,100560.13
2022-10-06T21:56:45.679Z,100559.96
2022-10-06T21:59:12.322Z,100561.18
2022-10-06T22:01:43.279Z,100565.41
2022-10-06T22:04:10.549Z,100566.05
2022-10-06T22:06:37.515Z,100565.63
2022-10-06T22:09:05.359Z,100563.52
2022-10-06T22:11:34.915Z,100564.83
2022-10-06T22:14:02.917Z,100567.86
2022-10-06T22:16:31.271Z,100568.69
2022-10-06T22:18:58.318Z,100567.54
2022-10-06T22:21:29.464Z,100574.11
2022-10-06T22:23:57.843Z,100576.44
2022-10-06T22:26:24.664Z,100575.77
2022-10-06T22:28:52.159Z,100577.89
2022-10-06T22:31:23.229Z,100582.77
2022-10-06T22:33:57.622Z,100580.31
2022-10-06T22:36:24.627Z,100581.49
2022-10-06T22:38:51.536Z,100585.91
2022-10-06T22:41:18.349Z,100588.83
2022-10-06T22:43:45.048Z,100592.95
2022-10-06T22:46:11.925Z,100593.67
2022-10-06T22:48:38.858Z,100592.66
2022-10-06T22:51:05.972Z,100594.30
2022-10-06T22:53:32.832Z,100596.73
2022-10-06T22:55:59.957Z,100600.29
2022-10-06T22:58:26.897Z,100601.87
2022-10-06T23:00:54.187Z,100611.36
2022-10-06T23:03:21.117Z,100609.19
2022-10-06T23:05:55.434Z,100607.86
2022-10-06T23:08:22.216Z,100610.80
2022-10-06T23:10:48.926Z,100613.62
2022-10-06T23:13:15.627Z,100614.70
2022-10-06T23:15:42.337Z,100616.69
2022-10-06T23:18:09.268Z,100620.26
2022-10-06T23:20:35.989Z,100618.59
2022-10-06T23:23:02.717Z,100621.32
2022-10-06T23:25:29.428Z,100619.60
2022-10-06T23:27:56.120Z,100619.80
2022-10-06T23:30:22.880Z,100616.00
2022-10-06T23:32:49.563Z,100617.13
2022-10-06T23:35:16.199Z,100619.84
2022-10-06T23:37:43.153Z,100629.84
2022-10-06T23:40:10.495Z,100624.96
2022-10-06T23:42:37.174Z,100630.48
2022-10-06T23:45:04.233Z,100629.73
2022-10-06T23:47:30.920Z,100634.52
2022-10-06T23:49:57.709Z,100633.21
2022-10-06T23:52:24.432Z,100634.09
2022-10-06T23:54:51.205Z,100639.89
2022-10-06T23:57:17.908Z,100639.47
2022-10-06T23:59:44.598Z,100636.84
